createdAt,value
2019-04-09T00:00:47.271Z,1000.42
2019-04-09T00:01:47.197Z,1000.43
2019-04-09T00:02:47.154Z,1000.43
2019-04-09T00:03:47.809Z,1000.41
2019-04-09T00:04:47.770Z,1000.38
2019-04-09T00:05:47.972Z,1000.37
2019-04-09T00:06:47.857Z,1000.41
2019-04-09T00:07:58.839Z,1000.44
2019-04-09T00:08:47.728Z,1000.37
2019-04-09T00:09:47.631Z,1000.42
2019-04-09T00:10:46.835Z,1000.42
2019-04-09T00:11:47.621Z,1000.41
2019-04-09T00:12:46.784Z,1000.42
2019-04-09T00:13:46.565Z,1000.41
2019-04-09T00:14:46.757Z,1000.43
2019-04-09T00:15:46.481Z,1000.44
2019-04-09T00:16:46.426Z,1000.43
2019-04-09T00:17:46.611Z,1000.46
2019-04-09T00:18:46.303Z,1000.45
2019-04-09T00:19:46.278Z,1000.41
2019-04-09T00:20:47.013Z,1000.38
2019-04-09T00:21:46.144Z,1000.43
2019-04-09T00:22:46.097Z,1000.44
2019-04-09T00:23:46.757Z,1000.44
2019-04-09T00:24:46.030Z,1000.41
2019-04-09T00:25:46.769Z,1000.43
2019-04-09T00:26:51.772Z,1000.43
2019-04-09T00:27:45.834Z,1000.41
2019-04-09T00:28:45.779Z,1000.44
2019-04-09T00:29:46.343Z,1000.43
2019-04-09T00:30:45.692Z,1000.40
2019-04-09T00:31:45.630Z,1000.42
2019-04-09T00:32:45.577Z,1000.44
2019-04-09T00:33:46.395Z,1000.41
2019-04-09T00:34:46.351Z,1000.43
2019-04-09T00:35:46.404Z,1000.47
2019-04-09T00:36:46.386Z,1000.43
2019-04-09T00:37:45.519Z,1000.42
2019-04-09T00:38:45.475Z,1000.46
2019-04-09T00:39:45.383Z,1000.44
2019-04-09T00:40:45.146Z,1000.47
2019-04-09T00:41:45.106Z,1000.45
2019-04-09T00:42:45.547Z,1000.47
2019-04-09T00:43:45.552Z,1000.42
2019-04-09T00:44:45.026Z,1000.44
2019-04-09T00:45:44.904Z,1000.44
2019-04-09T00:46:47.439Z,1000.43
2019-04-09T00:47:44.903Z,1000.44
2019-04-09T00:48:44.730Z,1000.47
2019-04-09T00:49:45.797Z,1000.46
2019-04-09T00:50:44.631Z,1000.45
2019-04-09T00:51:44.938Z,1000.47
2019-04-09T00:52:44.801Z,1000.44
2019-04-09T00:53:44.664Z,1000.45
2019-04-09T00:54:44.475Z,1000.45
2019-04-09T00:55:44.369Z,1000.46
2019-04-09T00:56:56.515Z,1000.44
2019-04-09T00:57:45.114Z,1000.39
2019-04-09T00:58:45.104Z,1000.39
2019-04-09T00:59:44.163Z,1000.41
2019-04-09T01:00:45.893Z,1000.36
2019-04-09T01:01:44.256Z,1000.39
2019-04-09T01:02:45.153Z,1000.37
2019-04-09T01:03:43.943Z,1000.31
2019-04-09T01:04:44.341Z,1000.37
2019-04-09T01:05:44.100Z,1000.37
2019-04-09T01:06:43.783Z,1000.36
2019-04-09T01:07:43.731Z,1000.36
2019-04-09T01:08:43.681Z,1000.28
2019-04-09T01:09:43.642Z,1000.31
2019-04-09T01:10:43.605Z,1000.37
2019-04-09T01:11:43.654Z,1000.33
2019-04-09T01:12:43.483Z,1000.36
2019-04-09T01:13:43.470Z,1000.37
2019-04-09T01:14:44.274Z,1000.35
2019-04-09T01:15:43.364Z,1000.32
2019-04-09T01:16:44.247Z,1000.37
2019-04-09T01:17:43.784Z,1000.37
2019-04-09T01:18:43.724Z,1000.34
2019-04-09T01:19:43.101Z,1000.36
2019-04-09T01:20:43.062Z,1000.34
2019-04-09T01:21:43.467Z,1000.41
2019-04-09T01:22:43.396Z,1000.33
2019-04-09T01:23:42.893Z,1000.30
2019-04-09T01:24:43.807Z,1000.30
2019-04-09T01:25:42.821Z,1000.38
2019-04-09T01:26:42.810Z,1000.29
2019-04-09T01:27:43.564Z,1000.35
2019-04-09T01:28:42.747Z,1000.32
2019-04-09T01:29:42.823Z,1000.35
2019-04-09T01:30:42.536Z,1000.34
2019-04-09T01:31:42.511Z,1000.37
2019-04-09T01:32:42.429Z,1000.28
2019-04-09T01:33:42.353Z,1000.28
2019-04-09T01:34:42.916Z,1000.37
2019-04-09T01:35:42.879Z,1000.29
2019-04-09T01:36:42.190Z,1000.32
2019-04-09T01:37:42.137Z,1000.35
2019-04-09T01:38:42.746Z,1000.28
2019-04-09T01:39:42.705Z,1000.30
2019-04-09T01:40:42.013Z,1000.24
2019-04-09T01:41:41.941Z,1000.26
2019-04-09T01:42:41.891Z,1000.26
2019-04-09T01:43:42.807Z,1000.21
2019-04-09T01:44:41.777Z,1000.24
2019-04-09T01:45:41.916Z,1000.21
2019-04-09T01:46:41.732Z,1000.21
2019-04-09T01:47:41.615Z,1000.18
2019-04-09T01:48:42.459Z,1000.13
2019-04-09T01:49:41.796Z,1000.12
2019-04-09T01:50:41.959Z,1000.11
2019-04-09T01:51:41.393Z,1000.18
2019-04-09T01:52:41.342Z,1000.10
2019-04-09T01:53:41.287Z,1000.11
2019-04-09T01:54:41.238Z,1000.15
2019-04-09T01:55:41.867Z,1000.13
2019-04-09T01:56:41.133Z,1000.13
2019-04-09T01:57:41.739Z,1000.09
2019-04-09T01:58:41.515Z,999.96
2019-04-09T01:59:40.968Z,1000.11
2019-04-09T02:00:41.325Z,1000.10
2019-04-09T02:01:40.860Z,1000.05
2019-04-09T02:02:40.805Z,1000.05
2019-04-09T02:03:41.272Z,1000.10
2019-04-09T02:04:41.104Z,1000.04
2019-04-09T02:05:40.698Z,1000.08
2019-04-09T02:06:41.289Z,1000.12
2019-04-09T02:07:41.128Z,1000.10
2019-04-09T02:08:48.790Z,1000.08
2019-04-09T02:09:40.428Z,1000.09
2019-04-09T02:10:41.010Z,1000.20
2019-04-09T02:11:40.424Z,1000.20
2019-04-09T02:12:40.272Z,1000.22
2019-04-09T02:13:40.461Z,1000.13
2019-04-09T02:14:40.214Z,1000.17
2019-04-09T02:15:40.134Z,1000.22
2019-04-09T02:16:40.052Z,1000.19
2019-04-09T02:17:40.482Z,1000.24
2019-04-09T02:18:40.476Z,1000.21
2019-04-09T02:19:39.890Z,1000.20
2019-04-09T02:20:39.839Z,1000.23
2019-04-09T02:21:39.803Z,1000.20
2019-04-09T02:22:39.727Z,1000.21
2019-04-09T02:23:41.211Z,1000.24
2019-04-09T02:24:40.484Z,1000.23
2019-04-09T02:25:39.565Z,1000.24
2019-04-09T02:26:39.538Z,1000.24
2019-04-09T02:27:44.569Z,1000.25
2019-04-09T02:28:39.904Z,1000.28
2019-04-09T02:29:39.351Z,1000.31
2019-04-09T02:30:39.704Z,1000.26
2019-04-09T02:31:39.267Z,1000.28
2019-04-09T02:32:40.568Z,1000.29
2019-04-09T02:33:40.776Z,1000.39
2019-04-09T02:34:39.497Z,1000.41
2019-04-09T02:35:39.236Z,1000.39
2019-04-09T02:36:41.172Z,1000.43
2019-04-09T02:37:39.275Z,1000.42
2019-04-09T02:38:38.869Z,1000.35
2019-04-09T02:39:38.816Z,1000.43
2019-04-09T02:40:38.767Z,1000.43
2019-04-09T02:41:39.436Z,1000.38
2019-04-09T02:42:39.362Z,1000.43
2019-04-09T02:43:38.600Z,1000.39
2019-04-09T02:44:39.454Z,1000.40
2019-04-09T02:45:39.417Z,1000.39
2019-04-09T02:46:38.573Z,1000.44
2019-04-09T02:47:38.393Z,1000.43
2019-04-09T02:48:39.283Z,1000.43
2019-04-09T02:49:39.256Z,1000.48
2019-04-09T02:50:38.221Z,1000.47
2019-04-09T02:51:38.376Z,1000.43
2019-04-09T02:52:38.119Z,1000.38
2019-04-09T02:53:38.067Z,1000.44
2019-04-09T02:54:38.009Z,1000.45
2019-04-09T02:55:38.823Z,1000.39
2019-04-09T02:56:38.815Z,1000.37
2019-04-09T02:57:47.213Z,1000.38
2019-04-09T02:58:38.783Z,1000.43
2019-04-09T02:59:38.613Z,1000.38
2019-04-09T03:00:37.804Z,1000.36
2019-04-09T03:01:38.487Z,1000.33
2019-04-09T03:02:38.469Z,1000.34
2019-04-09T03:03:37.715Z,1000.35
2019-04-09T03:04:37.510Z,1000.34
2019-04-09T03:05:37.419Z,1000.34
2019-04-09T03:06:37.383Z,1000.38
2019-04-09T03:07:37.704Z,1000.41
2019-04-09T03:08:37.506Z,1000.41
2019-04-09T03:09:37.243Z,1000.41
2019-04-09T03:10:37.151Z,1000.43
2019-04-09T03:11:38.018Z,1000.49
2019-04-09T03:12:37.142Z,1000.41
2019-04-09T03:13:37.140Z,1000.40
2019-04-09T03:14:36.920Z,1000.42
2019-04-09T03:15:36.878Z,1000.40
2019-04-09T03:16:37.814Z,1000.47
2019-04-09T03:17:36.873Z,1000.49
2019-04-09T03:18:37.734Z,1000.45
2019-04-09T03:19:36.813Z,1000.48
2019-04-09T03:20:36.725Z,1000.49
2019-04-09T03:21:36.572Z,1000.49
2019-04-09T03:22:36.494Z,1000.47
2019-04-09T03:23:37.531Z,1000.50
2019-04-09T03:24:36.386Z,1000.50
2019-04-09T03:25:36.831Z,1000.50
2019-04-09T03:26:36.602Z,1000.54
2019-04-09T03:27:36.561Z,1000.47
2019-04-09T03:28:37.156Z,1000.52
2019-04-09T03:29:36.118Z,1000.51
2019-04-09T03:30:36.917Z,1000.52
2019-04-09T03:31:37.075Z,1000.56
2019-04-09T03:32:37.514Z,1000.52
2019-04-09T03:33:36.181Z,1000.53
2019-04-09T03:34:37.458Z,1000.53
2019-04-09T03:35:35.929Z,1000.52
2019-04-09T03:36:35.885Z,1000.58
2019-04-09T03:37:35.689Z,1000.57
2019-04-09T03:38:35.632Z,1000.63
2019-04-09T03:39:36.028Z,1000.55
2019-04-09T03:40:35.837Z,1000.61
2019-04-09T03:41:35.461Z,1000.61
2019-04-09T03:42:35.433Z,1000.64
2019-04-09T03:43:35.354Z,1000.65
2019-04-09T03:44:35.632Z,1000.68
2019-04-09T03:45:35.294Z,1000.65
2019-04-09T03:46:35.193Z,1000.62
2019-04-09T03:47:35.262Z,1000.66
2019-04-09T03:48:35.528Z,1000.66
2019-04-09T03:49:35.030Z,1000.65
2019-04-09T03:50:35.498Z,1000.68
2019-04-09T03:51:35.571Z,1000.69
2019-04-09T03:52:35.540Z,1000.67
2019-04-09T03:53:34.819Z,1000.71
2019-04-09T03:54:35.005Z,1000.64
2019-04-09T03:55:34.708Z,1000.72
2019-04-09T03:56:34.651Z,1000.67
2019-04-09T03:57:34.622Z,1000.67
2019-04-09T03:58:34.544Z,1000.67
2019-04-09T03:59:35.516Z,1000.63
2019-04-09T04:00:34.687Z,1000.62
2019-04-09T04:01:34.903Z,1000.66
2019-04-09T04:02:34.350Z,1000.67
2019-04-09T04:03:34.273Z,1000.66
2019-04-09T04:04:34.215Z,1000.69
2019-04-09T04:05:34.163Z,1000.71
2019-04-09T04:06:34.338Z,1000.74
2019-04-09T04:07:34.076Z,1000.68
2019-04-09T04:08:34.003Z,1000.70
2019-04-09T04:09:34.833Z,1000.68
2019-04-09T04:10:33.911Z,1000.69
2019-04-09T04:11:33.853Z,1000.73
2019-04-09T04:12:33.803Z,1000.70
2019-04-09T04:13:33.725Z,1000.76
2019-04-09T04:14:34.501Z,1000.77
2019-04-09T04:15:34.691Z,1000.74
2019-04-09T04:16:33.562Z,1000.80
2019-04-09T04:17:33.543Z,1000.83
2019-04-09T04:18:34.032Z,1000.77
2019-04-09T04:19:33.405Z,1000.80
2019-04-09T04:20:33.469Z,1000.76
2019-04-09T04:21:33.290Z,1000.70
2019-04-09T04:22:33.428Z,1000.68
2019-04-09T04:23:33.480Z,1000.73
2019-04-09T04:24:33.126Z,1000.73
2019-04-09T04:25:33.079Z,1000.65
2019-04-09T04:26:33.016Z,1000.71
2019-04-09T04:27:33.933Z,1000.73
2019-04-09T04:28:36.741Z,1000.67
2019-04-09T04:29:33.164Z,1000.75
2019-04-09T04:30:32.799Z,1000.72
2019-04-09T04:31:33.574Z,1000.73
2019-04-09T04:32:33.496Z,1000.76
2019-04-09T04:33:33.506Z,1000.77
2019-04-09T04:34:32.583Z,1000.73
2019-04-09T04:35:32.811Z,1000.73
2019-04-09T04:36:33.022Z,1000.72
2019-04-09T04:37:33.257Z,1000.75
2019-04-09T04:38:32.363Z,1000.75
2019-04-09T04:39:32.927Z,1000.82
2019-04-09T04:40:32.250Z,1000.78
2019-04-09T04:41:32.369Z,1000.81
2019-04-09T04:42:32.166Z,1000.84
2019-04-09T04:43:32.960Z,1000.83
2019-04-09T04:44:32.742Z,1000.83
2019-04-09T04:45:31.979Z,1000.89
2019-04-09T04:46:31.920Z,1000.90
2019-04-09T04:47:32.269Z,1000.89
2019-04-09T04:48:31.810Z,1000.90
2019-04-09T04:49:31.758Z,1000.89
2019-04-09T04:50:31.707Z,1000.90
2019-04-09T04:51:31.654Z,1000.94
2019-04-09T04:52:31.621Z,1000.92
2019-04-09T04:53:31.542Z,1000.91
2019-04-09T04:54:32.132Z,1000.90
2019-04-09T04:55:31.429Z,1000.91
2019-04-09T04:56:32.036Z,1000.90
2019-04-09T04:57:31.514Z,1000.91
2019-04-09T04:58:41.327Z,1000.94
2019-04-09T04:59:31.894Z,1000.93
2019-04-09T05:00:31.164Z,1000.96
2019-04-09T05:01:31.110Z,1000.97
2019-04-09T05:02:31.320Z,1000.93
2019-04-09T05:03:31.011Z,1000.98
2019-04-09T05:04:30.936Z,1000.99
2019-04-09T05:05:31.054Z,1001.00
2019-04-09T05:06:31.716Z,1001.03
2019-04-09T05:07:39.010Z,1000.97
2019-04-09T05:08:30.742Z,1001.01
2019-04-09T05:09:30.695Z,1001.08
2019-04-09T05:10:30.607Z,1001.02
2019-04-09T05:11:30.740Z,1001.08
2019-04-09T05:12:30.500Z,1001.09
2019-04-09T05:13:30.548Z,1001.09
2019-04-09T05:14:30.391Z,1001.12
2019-04-09T05:15:31.219Z,1001.13
2019-04-09T05:16:30.601Z,1001.14
2019-04-09T05:17:30.864Z,1001.08
2019-04-09T05:18:30.192Z,1001.13
2019-04-09T05:19:30.640Z,1001.19
2019-04-09T05:20:30.159Z,1001.15
2019-04-09T05:21:30.331Z,1001.18
2019-04-09T05:22:32.191Z,1001.23
2019-04-09T05:23:29.927Z,1001.17
2019-04-09T05:24:30.195Z,1001.19
2019-04-09T05:25:29.784Z,1001.20
2019-04-09T05:26:29.738Z,1001.27
2019-04-09T05:27:29.680Z,1001.29
2019-04-09T05:28:29.646Z,1001.32
2019-04-09T05:29:29.710Z,1001.34
2019-04-09T05:30:29.511Z,1001.36
2019-04-09T05:31:30.660Z,1001.39
2019-04-09T05:32:29.788Z,1001.34
2019-04-09T05:33:29.365Z,1001.41
2019-04-09T05:34:29.720Z,1001.44
2019-04-09T05:35:29.420Z,1001.47
2019-04-09T05:36:29.185Z,1001.45
2019-04-09T05:37:29.124Z,1001.49
2019-04-09T05:38:29.274Z,1001.49
2019-04-09T05:39:29.040Z,1001.45
2019-04-09T05:40:28.957Z,1001.52
2019-04-09T05:41:29.835Z,1001.55
2019-04-09T05:42:28.845Z,1001.52
2019-04-09T05:43:28.822Z,1001.54
2019-04-09T05:44:29.418Z,1001.53
2019-04-09T05:45:28.698Z,1001.55
2019-04-09T05:46:28.632Z,1001.55
2019-04-09T05:47:28.575Z,1001.57
2019-04-09T05:48:29.613Z,1001.55
2019-04-09T05:49:28.463Z,1001.58
2019-04-09T05:50:28.410Z,1001.62
2019-04-09T05:51:28.356Z,1001.62
2019-04-09T05:52:29.147Z,1001.60
2019-04-09T05:53:28.273Z,1001.66
2019-04-09T05:54:28.377Z,1001.69
2019-04-09T05:55:28.896Z,1001.70
2019-04-09T05:56:28.083Z,1001.71
2019-04-09T05:57:28.475Z,1001.69
2019-04-09T05:58:27.998Z,1001.70
2019-04-09T05:59:28.982Z,1001.75
2019-04-09T06:00:28.257Z,1001.74
2019-04-09T06:01:27.813Z,1001.75
2019-04-09T06:02:27.755Z,1001.72
2019-04-09T06:03:28.724Z,1001.73
2019-04-09T06:04:27.757Z,1001.78
2019-04-09T06:05:27.590Z,1001.75
2019-04-09T06:06:27.541Z,1001.79
2019-04-09T06:07:27.480Z,1001.79
2019-04-09T06:08:27.626Z,1001.77
2019-04-09T06:09:27.371Z,1001.79
2019-04-09T06:10:28.152Z,1001.74
2019-04-09T06:11:27.595Z,1001.77
2019-04-09T06:12:27.208Z,1001.77
2019-04-09T06:13:27.328Z,1001.80
2019-04-09T06:14:27.340Z,1001.76
2019-04-09T06:15:27.044Z,1001.79
2019-04-09T06:16:27.307Z,1001.74
2019-04-09T06:17:27.457Z,1001.78
2019-04-09T06:18:27.043Z,1001.76
2019-04-09T06:19:27.361Z,1001.81
2019-04-09T06:20:27.592Z,1001.82
2019-04-09T06:21:30.818Z,1001.80
2019-04-09T06:22:27.472Z,1001.88
2019-04-09T06:23:26.634Z,1001.82
2019-04-09T06:24:27.727Z,1001.81
2019-04-09T06:25:27.731Z,1001.82
2019-04-09T06:26:26.503Z,1001.84
2019-04-09T06:27:26.407Z,1001.81
2019-04-09T06:28:26.365Z,1001.84
2019-04-09T06:29:26.355Z,1001.86
2019-04-09T06:30:27.243Z,1001.88
2019-04-09T06:31:26.496Z,1001.88
2019-04-09T06:32:26.742Z,1001.94
2019-04-09T06:33:26.077Z,1001.94
2019-04-09T06:34:26.619Z,1001.94
2019-04-09T06:35:25.964Z,1001.99
2019-04-09T06:36:25.903Z,1001.96
2019-04-09T06:37:26.267Z,1002.01
2019-04-09T06:38:25.807Z,1001.99
2019-04-09T06:39:25.773Z,1001.93
2019-04-09T06:40:26.301Z,1001.96
2019-04-09T06:41:25.639Z,1002.05
2019-04-09T06:42:25.907Z,1001.97
2019-04-09T06:43:25.522Z,1001.97
2019-04-09T06:44:26.591Z,1001.96
2019-04-09T06:45:25.917Z,1002.00
2019-04-09T06:46:25.373Z,1001.96
2019-04-09T06:47:25.316Z,1001.97
2019-04-09T06:48:25.750Z,1001.98
2019-04-09T06:49:26.206Z,1001.96
2019-04-09T06:50:25.149Z,1002.00
2019-04-09T06:51:31.389Z,1001.96
2019-04-09T06:52:25.054Z,1001.98
2019-04-09T06:53:25.553Z,1002.03
2019-04-09T06:54:24.964Z,1001.99
2019-04-09T06:55:25.016Z,1001.98
2019-04-09T06:56:25.328Z,1002.00
2019-04-09T06:57:25.551Z,1001.97
2019-04-09T06:58:24.726Z,1001.97
2019-04-09T06:59:29.879Z,1002.06
2019-04-09T07:00:24.636Z,1002.00
2019-04-09T07:01:24.659Z,1002.02
2019-04-09T07:02:24.514Z,1002.05
2019-04-09T07:03:24.457Z,1002.04
2019-04-09T07:04:24.426Z,1002.00
2019-04-09T07:05:24.769Z,1002.04
2019-04-09T07:06:24.295Z,1002.02
2019-04-09T07:07:24.809Z,1002.02
2019-04-09T07:08:24.937Z,1002.02
2019-04-09T07:09:25.123Z,1001.98
2019-04-09T07:10:24.500Z,1001.99
2019-04-09T07:11:24.512Z,1001.97
2019-04-09T07:12:24.777Z,1002.00
2019-04-09T07:13:23.919Z,1002.08
2019-04-09T07:14:24.494Z,1002.05
2019-04-09T07:15:23.843Z,1002.07
2019-04-09T07:16:23.758Z,1002.04
2019-04-09T07:17:24.560Z,1002.02
2019-04-09T07:18:23.646Z,1002.05
2019-04-09T07:19:23.619Z,1002.09
2019-04-09T07:20:24.481Z,1002.06
2019-04-09T07:21:24.383Z,1002.07
2019-04-09T07:22:23.429Z,1001.96
2019-04-09T07:23:23.898Z,1002.02
2019-04-09T07:24:24.319Z,1002.01
2019-04-09T07:25:23.270Z,1002.01
2019-04-09T07:26:23.450Z,1002.02
2019-04-09T07:27:23.160Z,1002.02
2019-04-09T07:28:24.593Z,1002.06
2019-04-09T07:29:23.853Z,1002.03
2019-04-09T07:30:25.534Z,1002.06
2019-04-09T07:31:27.243Z,1002.04
2019-04-09T07:32:23.619Z,1002.09
2019-04-09T07:33:23.403Z,1002.08
2019-04-09T07:34:22.804Z,1002.06
2019-04-09T07:35:29.339Z,1002.09
2019-04-09T07:36:23.441Z,1002.12
2019-04-09T07:37:22.794Z,1002.07
2019-04-09T07:38:22.630Z,1002.09
2019-04-09T07:39:25.810Z,1002.14
2019-04-09T07:40:22.452Z,1002.14
2019-04-09T07:41:23.781Z,1002.08
2019-04-09T07:42:22.409Z,1002.08
2019-04-09T07:43:24.036Z,1002.06
2019-04-09T07:44:23.175Z,1002.06
2019-04-09T07:45:23.984Z,1002.03
2019-04-09T07:46:22.123Z,1002.06
2019-04-09T07:47:25.787Z,1002.03
2019-04-09T07:48:26.244Z,1002.04
2019-04-09T07:49:21.961Z,1002.05
2019-04-09T07:50:21.952Z,1002.03
2019-04-09T07:51:22.475Z,1001.97
2019-04-09T07:52:22.657Z,1002.00
2019-04-09T07:53:22.821Z,1002.00
2019-04-09T07:54:21.685Z,1001.97
2019-04-09T07:55:23.483Z,1001.96
2019-04-09T07:56:21.770Z,1001.95
2019-04-09T07:57:21.930Z,1001.96
2019-04-09T07:58:21.467Z,1001.97
2019-04-09T07:59:25.304Z,1001.95
2019-04-09T08:00:25.062Z,1001.99
2019-04-09T08:01:21.314Z,1001.97
2019-04-09T08:02:24.760Z,1001.95
2019-04-09T08:03:21.848Z,1001.95
2019-04-09T08:04:21.248Z,1002.07
2019-04-09T08:05:21.617Z,1001.96
2019-04-09T08:06:21.475Z,1001.96
2019-04-09T08:07:24.564Z,1001.89
2019-04-09T08:08:32.172Z,1001.95
2019-04-09T08:09:20.860Z,1001.96
2019-04-09T08:10:20.831Z,1001.96
2019-04-09T08:11:20.751Z,1001.94
2019-04-09T08:12:20.764Z,1002.00
2019-04-09T08:13:21.778Z,1001.95
2019-04-09T08:14:20.588Z,1002.05
2019-04-09T08:15:20.558Z,1002.07
2019-04-09T08:16:21.113Z,1002.08
2019-04-09T08:17:20.421Z,1002.16
2019-04-09T08:18:22.053Z,1002.08
2019-04-09T08:19:20.726Z,1002.13
2019-04-09T08:20:27.328Z,1002.19
2019-04-09T08:21:20.211Z,1002.18
2019-04-09T08:22:20.373Z,1002.18
2019-04-09T08:23:20.730Z,1002.28
2019-04-09T08:24:22.805Z,1002.16
2019-04-09T08:25:20.872Z,1002.17
2019-04-09T08:26:20.389Z,1002.16
2019-04-09T08:27:19.882Z,1002.19
2019-04-09T08:28:21.961Z,1002.26
2019-04-09T08:29:22.732Z,1002.19
2019-04-09T08:30:25.940Z,1002.19
2019-04-09T08:31:21.037Z,1002.18
2019-04-09T08:32:21.455Z,1002.19
2019-04-09T08:33:21.942Z,1002.17
2019-04-09T08:34:21.984Z,1002.13
2019-04-09T08:35:19.966Z,1002.12
2019-04-09T08:36:19.391Z,1002.11
2019-04-09T08:37:21.789Z,1002.15
2019-04-09T08:38:20.199Z,1002.25
2019-04-09T08:39:19.230Z,1002.21
2019-04-09T08:40:19.203Z,1002.16
2019-04-09T08:41:22.247Z,1002.19
2019-04-09T08:42:19.087Z,1002.20
2019-04-09T08:43:19.035Z,1002.19
2019-04-09T08:44:20.161Z,1002.22
2019-04-09T08:45:21.576Z,1002.18
2019-04-09T08:46:22.799Z,1002.14
2019-04-09T08:47:19.005Z,1002.17
2019-04-09T08:48:18.755Z,1002.15
2019-04-09T08:49:19.511Z,1002.14
2019-04-09T08:50:18.794Z,1002.17
2019-04-09T08:51:18.922Z,1002.20
2019-04-09T08:52:19.161Z,1002.17
2019-04-09T08:53:18.859Z,1002.18
2019-04-09T08:54:21.649Z,1002.20
2019-04-09T08:55:18.406Z,1002.19
2019-04-09T08:56:18.348Z,1002.24
2019-04-09T08:57:19.473Z,1002.21
2019-04-09T08:58:22.728Z,1002.22
2019-04-09T08:59:20.456Z,1002.21
2019-04-09T09:00:43.342Z,1002.22
2019-04-09T09:01:41.809Z,1002.18
2019-04-09T09:02:23.708Z,1002.25
2019-04-09T09:03:22.316Z,1002.22
2019-04-09T09:04:18.600Z,1002.25
2019-04-09T09:05:19.636Z,1002.30
2019-04-09T09:06:19.027Z,1002.22
2019-04-09T09:07:18.270Z,1002.22
2019-04-09T09:08:17.715Z,1002.23
2019-04-09T09:09:17.946Z,1002.27
2019-04-09T09:10:19.811Z,1002.24
2019-04-09T09:11:18.082Z,1002.28
2019-04-09T09:12:17.496Z,1002.25
2019-04-09T09:13:21.046Z,1002.27
2019-04-09T09:14:18.248Z,1002.23
2019-04-09T09:15:20.644Z,1002.22
2019-04-09T09:16:17.516Z,1002.24
2019-04-09T09:17:17.225Z,1002.26
2019-04-09T09:18:20.308Z,1002.21
2019-04-09T09:19:18.250Z,1002.24
2019-04-09T09:20:17.086Z,1002.29
2019-04-09T09:21:27.201Z,1002.21
2019-04-09T09:22:16.971Z,1002.22
2019-04-09T09:23:17.541Z,1002.20
2019-04-09T09:24:20.023Z,1002.28
2019-04-09T09:25:16.897Z,1002.21
2019-04-09T09:26:17.740Z,1002.26
2019-04-09T09:27:16.706Z,1002.23
2019-04-09T09:28:16.665Z,1002.17
2019-04-09T09:29:17.422Z,1002.16
2019-04-09T09:30:16.557Z,1002.19
2019-04-09T09:31:24.242Z,1002.14
2019-04-09T09:32:17.401Z,1002.17
2019-04-09T09:33:16.403Z,1002.22
2019-04-09T09:34:18.922Z,1002.22
2019-04-09T09:35:16.291Z,1002.18
2019-04-09T09:36:16.328Z,1002.12
2019-04-09T09:37:18.594Z,1002.19
2019-04-09T09:38:17.882Z,1002.20
2019-04-09T09:39:16.081Z,1002.24
2019-04-09T09:40:16.029Z,1002.17
2019-04-09T09:41:16.011Z,1002.23
2019-04-09T09:42:15.937Z,1002.26
2019-04-09T09:43:17.819Z,1002.20
2019-04-09T09:44:18.604Z,1002.20
2019-04-09T09:45:16.603Z,1002.25
2019-04-09T09:46:16.647Z,1002.20
2019-04-09T09:47:16.417Z,1002.19
2019-04-09T09:48:18.084Z,1002.22
2019-04-09T09:49:16.601Z,1002.23
2019-04-09T09:50:19.812Z,1002.26
2019-04-09T09:51:16.131Z,1002.22
2019-04-09T09:52:17.546Z,1002.26
2019-04-09T09:53:15.648Z,1002.18
2019-04-09T09:54:15.304Z,1002.26
2019-04-09T09:55:18.138Z,1002.12
2019-04-09T09:56:15.231Z,1002.21
2019-04-09T09:57:16.109Z,1002.17
2019-04-09T09:58:16.689Z,1002.18
2019-04-09T09:59:15.686Z,1002.21
2019-04-09T10:00:15.837Z,1002.14
2019-04-09T10:01:23.775Z,1002.17
2019-04-09T10:02:14.891Z,1002.19
2019-04-09T10:03:15.213Z,1002.18
2019-04-09T10:04:16.810Z,1002.17
2019-04-09T10:05:14.797Z,1002.14
2019-04-09T10:06:18.566Z,1002.13
2019-04-09T10:07:14.840Z,1002.21
2019-04-09T10:08:17.478Z,1002.13
2019-04-09T10:09:14.527Z,1002.16
2019-04-09T10:10:14.990Z,1002.11
2019-04-09T10:11:14.496Z,1002.12
2019-04-09T10:12:14.482Z,1002.10
2019-04-09T10:13:15.464Z,1002.12
2019-04-09T10:14:14.284Z,1002.12
2019-04-09T10:15:19.528Z,1002.11
2019-04-09T10:16:15.816Z,1002.11
2019-04-09T10:17:14.738Z,1002.12
2019-04-09T10:18:14.099Z,1002.12
2019-04-09T10:19:21.075Z,1002.03
2019-04-09T10:20:13.965Z,1002.05
2019-04-09T10:21:15.073Z,1002.08
2019-04-09T10:22:13.861Z,1002.05
2019-04-09T10:23:15.237Z,1002.07
2019-04-09T10:24:24.864Z,1002.07
2019-04-09T10:25:13.704Z,1002.02
2019-04-09T10:26:16.251Z,1002.08
2019-04-09T10:27:16.967Z,1002.14
2019-04-09T10:28:13.977Z,1002.07
2019-04-09T10:29:15.793Z,1002.11
2019-04-09T10:30:14.053Z,1002.16
2019-04-09T10:31:23.778Z,1002.14
2019-04-09T10:32:13.468Z,1002.10
2019-04-09T10:33:14.360Z,1002.10
2019-04-09T10:34:14.111Z,1002.12
2019-04-09T10:35:13.193Z,1002.19
2019-04-09T10:36:14.105Z,1002.19
2019-04-09T10:37:18.229Z,1002.14
2019-04-09T10:38:13.047Z,1002.14
2019-04-09T10:39:13.911Z,1002.09
2019-04-09T10:40:13.930Z,1002.21
2019-04-09T10:41:21.348Z,1002.13
2019-04-09T10:42:13.373Z,1002.09
2019-04-09T10:43:13.929Z,1002.12
2019-04-09T10:44:15.026Z,1002.22
2019-04-09T10:45:13.291Z,1002.15
2019-04-09T10:46:13.217Z,1002.17
2019-04-09T10:47:14.036Z,1002.22
2019-04-09T10:48:13.836Z,1002.15
2019-04-09T10:49:14.827Z,1002.27
2019-04-09T10:50:13.358Z,1002.12
2019-04-09T10:51:13.408Z,1002.15
2019-04-09T10:52:18.659Z,1002.09
2019-04-09T10:53:12.289Z,1002.17
2019-04-09T10:54:14.538Z,1002.18
2019-04-09T10:55:17.096Z,1002.12
2019-04-09T10:56:12.107Z,1002.17
2019-04-09T10:57:12.078Z,1002.14
2019-04-09T10:58:17.778Z,1002.17
2019-04-09T10:59:12.005Z,1002.28
2019-04-09T11:00:12.235Z,1002.11
2019-04-09T11:01:14.375Z,1002.14
2019-04-09T11:02:12.455Z,1002.15
2019-04-09T11:03:12.603Z,1002.06
2019-04-09T11:04:13.616Z,1002.09
2019-04-09T11:05:14.577Z,1002.13
2019-04-09T11:06:11.751Z,1002.13
2019-04-09T11:07:11.554Z,1002.17
2019-04-09T11:08:11.484Z,1002.15
2019-04-09T11:09:12.543Z,1002.23
2019-04-09T11:10:20.579Z,1002.20
2019-04-09T11:11:16.474Z,1002.16
2019-04-09T11:12:11.321Z,1002.21
2019-04-09T11:13:12.259Z,1002.14
2019-04-09T11:14:11.173Z,1002.19
2019-04-09T11:15:15.626Z,1002.21
2019-04-09T11:16:11.079Z,1002.21
2019-04-09T11:17:11.040Z,1002.22
2019-04-09T11:18:13.782Z,1002.15
2019-04-09T11:19:10.915Z,1002.20
2019-04-09T11:20:10.913Z,1002.16
2019-04-09T11:21:10.808Z,1002.07
2019-04-09T11:22:15.259Z,1002.14
2019-04-09T11:23:11.629Z,1002.08
2019-04-09T11:24:11.463Z,1002.11
2019-04-09T11:25:10.603Z,1002.13
2019-04-09T11:26:12.373Z,1002.16
2019-04-09T11:27:10.537Z,1002.12
2019-04-09T11:28:11.527Z,1002.05
2019-04-09T11:29:10.394Z,1002.10
2019-04-09T11:30:10.351Z,1002.06
2019-04-09T11:31:10.290Z,1002.03
2019-04-09T11:32:11.784Z,1001.98
2019-04-09T11:33:10.754Z,1002.03
2019-04-09T11:34:11.043Z,1002.04
2019-04-09T11:35:10.208Z,1002.09
2019-04-09T11:36:10.655Z,1002.11
2019-04-09T11:37:10.008Z,1002.07
2019-04-09T11:38:10.958Z,1002.07
2019-04-09T11:39:10.203Z,1002.10
2019-04-09T11:40:09.830Z,1002.15
2019-04-09T11:41:10.657Z,1002.08
2019-04-09T11:42:09.743Z,1002.05
2019-04-09T11:43:09.669Z,1002.09
2019-04-09T11:44:09.628Z,1002.05
2019-04-09T11:45:09.574Z,1002.08
2019-04-09T11:46:11.091Z,1002.08
2019-04-09T11:47:09.484Z,1002.15
2019-04-09T11:48:09.768Z,1002.09
2019-04-09T11:49:09.956Z,1002.08
2019-04-09T11:50:09.880Z,1002.22
2019-04-09T11:51:09.731Z,1002.09
2019-04-09T11:52:09.990Z,1002.19
2019-04-09T11:53:10.066Z,1002.18
2019-04-09T11:54:09.134Z,1002.13
2019-04-09T11:55:09.261Z,1002.09
2019-04-09T11:56:09.463Z,1002.16
2019-04-09T11:57:08.954Z,1002.16
2019-04-09T11:58:08.973Z,1002.12
2019-04-09T11:59:08.981Z,1002.17
2019-04-09T12:00:09.848Z,1002.11
2019-04-09T12:01:08.750Z,1002.18
2019-04-09T12:02:12.620Z,1002.21
2019-04-09T12:03:08.635Z,1002.11
2019-04-09T12:04:09.602Z,1002.10
2019-04-09T12:05:08.537Z,1002.06